Jamestown Regional Airport
KJMS : now visible

Airfield :











YOU CAN JOIN US ON...

 
LOGIN :

Register | Disclaimer

   EN    FR    IT 

 









Legend :    VFR   Marginal VFR   IFR   Intensive IFR   Very Intensive IFR
Visi :
Ceiling :
>= 8 km
>= 3000ft
5 to 8 km
1000 to 3000 ft
1500m to 5 km
500 to 1000 ft
800 to 1500m
200 to 500 ft
< 800m
< 200 ft
Symbols :   Thunderstorms  Fog  Heavy snow  Heavy precipitations  Wind > 20 kt






- Airport Elevation : 1500 ft
- IATA code : JMS


KJMS - Jamestown Regional

CURRENT METAR :
  • 220922Z AUTO 08006KT 10SM OVC006 18/17 A2993 RMK AO2 CIG 004V011 T01780172

EXPIRED METARs :
  • 220856Z AUTO 08005KT 8SM OVC004 18/17 A2994 RMK AO2 RAB21E40 SLP136 P0001 60001 T01780172 58013
  • 220825Z AUTO 10004KT 5SM -RA BR BKN004 OVC009 18/17 A2995 RMK AO2 RAB21 P0000 T01780172
  • 220810Z AUTO 09005KT 5SM BR BKN005 BKN009 OVC033 18/17 A2995 RMK AO2 T01780172
  • 220705Z AUTO 10007KT 10SM SCT005 BKN013 OVC019 18/18 A2996 RMK AO2 T01780178
  • 220656Z AUTO 10007KT 10SM BKN005 OVC013 18/18 A2997 RMK AO2 SLP144 T01780178
  • 220556Z AUTO 09007KT 10SM OVC006 18/18 A2998 RMK AO2 SLP148 60015 T01780178 10183 20178 402280133 58008

TAF KJMS
Valid from the 22 at 08:00 until the 23 at 06:00 UTC


220802Z 2208/2306 10006KT P6SM VCSH OVC005
TEMPO 2208/2212 3SM -DZ BR SCT005 OVC012
FM221600 04006KT P6SM OVC008
FM221900 33005KT P6SM BKN012
FM222200 30008KT P6SM BKN025
FM230100 29005KT P6SM BKN040
KZMP FIR / North America



MET'MAP, your aeronautical weather chart ! - Copyright ORBIFLY December 2007 - Disclaimer

ORBIFLY MET'MAP TEAM :

Programming & Development : Alexandra Zaïnal
Original concept : Baudouin d'Aumeries
Technical & hardware support : Manuel Goepfert
Assistance : Marc-Olivier Méhu




SOURCES & CREDITS :

   NOAA       Earth
Advisory